createdAt,value
2022-09-16T00:01:01.498Z,100.00
2022-09-16T00:03:42.344Z,100.00
2022-09-16T00:06:26.315Z,100.00
2022-09-16T00:08:57.405Z,100.00
2022-09-16T00:11:25.445Z,100.00
2022-09-16T00:13:52.818Z,100.00
2022-09-16T00:16:24.546Z,100.00
2022-09-16T00:19:00.960Z,100.00
2022-09-16T00:21:30.875Z,100.00
2022-09-16T00:23:58.667Z,100.00
2022-09-16T00:26:26.236Z,100.00
2022-09-16T00:28:53.485Z,100.00
2022-09-16T00:31:21.278Z,100.00
2022-09-16T00:33:48.499Z,100.00
2022-09-16T00:36:20.073Z,100.00
2022-09-16T00:38:55.224Z,100.00
2022-09-16T00:41:27.709Z,99.83
2022-09-16T00:44:05.537Z,99.89
2022-09-16T00:46:44.131Z,99.90
2022-09-16T00:49:20.335Z,99.97
2022-09-16T00:51:52.198Z,99.97
2022-09-16T00:54:21.263Z,99.79
2022-09-16T00:56:55.781Z,100.00
2022-09-16T00:59:31.789Z,99.94
2022-09-16T01:02:06.885Z,99.64
2022-09-16T01:04:44.456Z,99.72
2022-09-16T01:07:12.043Z,100.00
2022-09-16T01:09:39.999Z,100.00
2022-09-16T01:12:07.225Z,99.96
2022-09-16T01:14:53.198Z,99.88
2022-09-16T01:17:35.723Z,99.70
2022-09-16T01:20:42.599Z,99.45
2022-09-16T01:23:27.665Z,99.70
2022-09-16T01:26:21.677Z,99.59
2022-09-16T01:29:35.600Z,99.66
2022-09-16T01:32:34.945Z,100.00
2022-09-16T01:35:29.231Z,100.00
2022-09-16T01:37:59.010Z,100.00
2022-09-16T01:40:42.983Z,100.00
2022-09-16T01:43:50.949Z,100.00
2022-09-16T01:46:31.370Z,100.00
2022-09-16T01:49:24.007Z,100.00
2022-09-16T01:52:23.770Z,100.00
2022-09-16T01:55:01.469Z,99.77
2022-09-16T01:57:48.489Z,99.58
2022-09-16T02:00:16.864Z,99.50
2022-09-16T02:03:06.442Z,99.09
2022-09-16T02:05:48.788Z,98.72
2022-09-16T02:08:29.827Z,98.63
2022-09-16T02:11:02.709Z,98.50
2022-09-16T02:13:53.572Z,98.13
2022-09-16T02:16:36.115Z,97.68
2022-09-16T02:19:12.096Z,96.96
2022-09-16T02:21:45.701Z,96.88
2022-09-16T02:24:21.493Z,96.58
2022-09-16T02:27:03.039Z,96.17
2022-09-16T02:29:44.451Z,95.72
2022-09-16T02:32:15.239Z,95.19
2022-09-16T02:34:50.541Z,94.87
2022-09-16T02:37:50.965Z,94.31
2022-09-16T02:40:34.911Z,94.56
2022-09-16T02:43:03.106Z,94.50
2022-09-16T02:45:46.906Z,94.28
2022-09-16T02:48:32.456Z,94.40
2022-09-16T02:51:30.692Z,94.76
2022-09-16T02:54:36.948Z,94.89
2022-09-16T02:57:06.556Z,95.11
2022-09-16T02:59:33.874Z,95.25
2022-09-16T03:02:01.503Z,95.42
2022-09-16T03:04:30.198Z,95.35
2022-09-16T03:06:58.169Z,95.31
2022-09-16T03:09:25.604Z,95.33
2022-09-16T03:12:40.375Z,95.34
2022-09-16T03:15:16.228Z,95.45
2022-09-16T03:18:11.949Z,95.49
2022-09-16T03:21:04.619Z,95.63
2022-09-16T03:23:57.429Z,95.45
2022-09-16T03:27:08.224Z,95.38
2022-09-16T03:29:45.990Z,95.27
2022-09-16T03:32:32.935Z,94.39
2022-09-16T03:35:04.930Z,94.03
2022-09-16T03:37:36.322Z,93.81
2022-09-16T03:40:12.589Z,94.08
2022-09-16T03:42:43.135Z,93.83
2022-09-16T03:45:18.053Z,93.85
2022-09-16T03:47:49.722Z,94.08
2022-09-16T03:50:19.128Z,94.19
2022-09-16T03:52:46.915Z,94.28
2022-09-16T03:55:14.593Z,94.57
2022-09-16T03:57:41.988Z,94.48
2022-09-16T04:00:10.816Z,94.60
2022-09-16T04:02:38.060Z,94.27
2022-09-16T04:05:06.107Z,94.53
2022-09-16T04:07:33.734Z,94.18
2022-09-16T04:10:01.964Z,93.99
2022-09-16T04:12:30.044Z,93.62
2022-09-16T04:14:57.330Z,93.40
2022-09-16T04:17:25.055Z,93.46
2022-09-16T04:19:53.194Z,93.46
2022-09-16T04:22:20.549Z,93.21
2022-09-16T04:24:47.802Z,93.09
2022-09-16T04:27:15.230Z,92.87
2022-09-16T04:29:42.784Z,92.96
2022-09-16T04:32:09.980Z,93.05
2022-09-16T04:34:37.362Z,92.38
2022-09-16T04:37:04.686Z,92.65
2022-09-16T04:39:31.928Z,91.87
2022-09-16T04:42:01.122Z,91.64
2022-09-16T04:44:30.291Z,91.22
2022-09-16T04:46:57.526Z,90.86
2022-09-16T04:49:25.310Z,90.08
2022-09-16T04:51:52.494Z,90.33
2022-09-16T04:54:19.656Z,89.73
2022-09-16T04:56:47.072Z,89.58
2022-09-16T04:59:14.287Z,89.02
2022-09-16T05:01:41.926Z,88.57
2022-09-16T05:04:10.815Z,87.45
2022-09-16T05:06:41.667Z,87.75
2022-09-16T05:09:12.404Z,87.38
2022-09-16T05:11:41.582Z,87.95
2022-09-16T05:14:16.057Z,87.96
2022-09-16T05:16:45.017Z,88.41
2022-09-16T05:19:14.426Z,89.28
2022-09-16T05:21:42.697Z,89.91
2022-09-16T05:24:13.497Z,90.17
2022-09-16T05:26:42.958Z,90.84
2022-09-16T05:29:17.307Z,91.82
2022-09-16T05:31:47.642Z,92.51
2022-09-16T05:34:19.448Z,92.96
2022-09-16T05:36:48.986Z,93.16
2022-09-16T05:39:25.775Z,92.82
2022-09-16T05:42:00.206Z,91.67
2022-09-16T05:44:29.398Z,90.93
2022-09-16T05:46:56.989Z,89.74
2022-09-16T05:49:24.623Z,89.48
2022-09-16T05:51:53.124Z,88.81
2022-09-16T05:54:23.907Z,88.58
2022-09-16T05:56:51.664Z,88.57
2022-09-16T05:59:19.454Z,88.76
2022-09-16T06:01:47.089Z,88.49
2022-09-16T06:04:15.758Z,87.13
2022-09-16T06:06:46.268Z,86.90
2022-09-16T06:09:25.374Z,87.00
2022-09-16T06:12:00.973Z,86.19
2022-09-16T06:14:30.096Z,85.58
2022-09-16T06:16:57.580Z,84.89
2022-09-16T06:19:24.944Z,84.56
2022-09-16T06:21:52.206Z,84.56
2022-09-16T06:24:21.272Z,84.83
2022-09-16T06:26:49.580Z,85.60
2022-09-16T06:29:17.662Z,84.93
2022-09-16T06:31:45.295Z,85.71
2022-09-16T06:34:18.647Z,86.31
2022-09-16T06:36:46.848Z,86.39
2022-09-16T06:39:16.119Z,86.92
2022-09-16T06:41:45.625Z,86.87
2022-09-16T06:44:13.390Z,85.28
2022-09-16T06:46:41.153Z,84.53
2022-09-16T06:49:11.064Z,82.26
2022-09-16T06:51:38.987Z,80.99
2022-09-16T06:54:09.216Z,80.33
2022-09-16T06:56:39.287Z,81.65
2022-09-16T06:59:07.498Z,82.32
2022-09-16T07:01:36.557Z,82.80
2022-09-16T07:04:10.570Z,83.17
2022-09-16T07:07:08.244Z,83.16
2022-09-16T07:09:25.588Z,83.36
2022-09-16T07:11:53.040Z,82.33
2022-09-16T07:14:20.212Z,81.68
2022-09-16T07:16:48.093Z,81.69
2022-09-16T07:19:15.527Z,81.66
2022-09-16T07:21:42.770Z,81.62
2022-09-16T07:24:13.887Z,80.58
2022-09-16T07:26:43.381Z,80.17
2022-09-16T07:29:17.226Z,79.85
2022-09-16T07:31:44.744Z,80.98
2022-09-16T07:34:13.785Z,80.83
2022-09-16T07:36:45.017Z,81.50
2022-09-16T07:39:16.008Z,82.11
2022-09-16T07:41:45.814Z,83.18
2022-09-16T07:44:16.917Z,82.54
2022-09-16T07:46:44.952Z,82.17
2022-09-16T07:49:15.050Z,81.46
2022-09-16T07:51:43.692Z,79.53
2022-09-16T07:54:15.256Z,77.90
2022-09-16T07:56:45.033Z,74.56
2022-09-16T07:59:18.761Z,71.53
2022-09-16T08:01:51.214Z,70.11
2022-09-16T08:04:20.595Z,68.32
2022-09-16T08:06:48.558Z,63.76
2022-09-16T08:12:06.003Z,49.29
2022-09-16T08:14:33.636Z,44.16
2022-09-16T08:17:02.055Z,39.32
2022-09-16T08:19:29.670Z,36.06
2022-09-16T08:21:59.176Z,34.99
2022-09-16T08:24:26.708Z,30.89
2022-09-16T08:29:27.380Z,30.58
2022-09-16T08:31:54.827Z,30.41
2022-09-16T08:34:22.139Z,30.11
2022-09-16T08:36:49.459Z,28.93
2022-09-16T08:39:17.076Z,28.30
2022-09-16T08:42:09.806Z,26.35
2022-09-16T08:45:20.671Z,25.67
2022-09-16T08:48:03.129Z,23.67
2022-09-16T08:50:40.494Z,23.35
2022-09-16T08:53:37.745Z,23.15
2022-09-16T08:56:13.036Z,23.75
2022-09-16T08:58:46.299Z,26.41
2022-09-16T09:01:30.053Z,24.12
2022-09-16T09:03:58.270Z,23.33
2022-09-16T09:07:09.835Z,23.26
2022-09-16T09:10:07.161Z,20.78
2022-09-16T09:12:46.739Z,22.62
2022-09-16T09:15:35.586Z,23.75
2022-09-16T09:18:13.926Z,28.40
2022-09-16T09:20:55.413Z,31.27
2022-09-16T09:24:13.263Z,33.68
2022-09-16T09:26:51.880Z,35.58
2022-09-16T09:29:35.462Z,38.77
2022-09-16T09:32:53.928Z,41.85
2022-09-16T09:36:13.488Z,44.62
2022-09-16T09:39:23.949Z,47.03
2022-09-16T09:42:11.745Z,50.74
2022-09-16T09:45:04.150Z,54.77
2022-09-16T09:47:59.497Z,56.54
2022-09-16T09:50:36.971Z,57.09
2022-09-16T09:53:31.921Z,55.52
2022-09-16T09:56:25.388Z,54.62
2022-09-16T09:59:22.438Z,50.94
2022-09-16T10:01:56.484Z,52.74
2022-09-16T10:04:24.775Z,53.86
2022-09-16T10:06:56.533Z,53.25
2022-09-16T10:09:24.949Z,53.09
2022-09-16T10:11:55.954Z,52.48
2022-09-16T10:14:37.595Z,44.27
2022-09-16T10:17:17.067Z,45.75
2022-09-16T10:20:18.355Z,48.04
2022-09-16T10:23:02.728Z,50.05
2022-09-16T10:25:33.327Z,52.25
2022-09-16T10:28:06.103Z,53.11
2022-09-16T10:30:47.220Z,54.54
2022-09-16T10:33:56.521Z,56.11
2022-09-16T10:36:27.977Z,57.62
2022-09-16T10:39:04.418Z,58.67
2022-09-16T10:41:46.590Z,59.06
2022-09-16T10:44:25.711Z,60.19
2022-09-16T10:47:16.027Z,61.13
2022-09-16T10:49:52.270Z,60.96
2022-09-16T10:52:27.636Z,62.00
2022-09-16T10:54:56.435Z,61.36
2022-09-16T10:57:30.841Z,57.69
2022-09-16T11:00:11.351Z,41.07
2022-09-16T11:02:58.238Z,31.85
2022-09-16T11:06:05.616Z,29.17
2022-09-16T11:09:05.661Z,27.41
2022-09-16T11:11:54.676Z,22.00
2022-09-16T11:14:45.602Z,23.55
2022-09-16T11:17:56.657Z,28.94
2022-09-16T11:20:50.425Z,28.04
2022-09-16T11:23:37.703Z,30.29
2022-09-16T11:26:36.948Z,26.08
2022-09-16T11:29:34.473Z,25.44
2022-09-16T11:32:19.282Z,28.66
2022-09-16T11:35:41.139Z,31.14
2022-09-16T11:38:26.121Z,31.36
2022-09-16T11:41:09.004Z,30.87
2022-09-16T11:44:13.818Z,28.44
2022-09-16T11:47:09.223Z,33.29
2022-09-16T11:50:21.018Z,30.39
2022-09-16T11:53:41.801Z,26.66
2022-09-16T11:56:28.597Z,28.79
2022-09-16T11:59:11.930Z,29.52
2022-09-16T12:01:55.186Z,30.54
2022-09-16T12:04:38.519Z,29.68
2022-09-16T12:07:23.821Z,30.24
2022-09-16T12:10:21.713Z,24.47
2022-09-16T12:13:15.693Z,19.61
2022-09-16T12:15:51.967Z,19.33
2022-09-16T12:18:27.903Z,22.38
2022-09-16T12:21:14.515Z,19.24
2022-09-16T12:23:49.477Z,22.61
2022-09-16T12:26:39.774Z,25.79
2022-09-16T12:29:39.460Z,29.77
2022-09-16T12:32:19.936Z,29.86
2022-09-16T12:35:01.559Z,28.52
2022-09-16T12:37:54.138Z,30.32
2022-09-16T12:40:26.937Z,32.09
2022-09-16T12:43:37.858Z,34.35
2022-09-16T12:46:51.378Z,36.64
2022-09-16T12:49:51.958Z,38.48
2022-09-16T12:53:24.093Z,40.76
2022-09-16T12:56:43.439Z,42.35
2022-09-16T12:59:44.996Z,42.95
2022-09-16T13:02:24.102Z,42.93
2022-09-16T13:04:58.241Z,43.42
2022-09-16T13:07:34.261Z,44.38
2022-09-16T13:10:17.302Z,45.47
2022-09-16T13:12:56.592Z,46.51
2022-09-16T13:15:33.128Z,47.29
2022-09-16T13:18:18.501Z,42.62
2022-09-16T13:20:56.393Z,44.62
2022-09-16T13:23:34.173Z,45.29
2022-09-16T13:26:08.749Z,45.33
2022-09-16T13:28:44.301Z,45.80
2022-09-16T13:31:12.029Z,46.22
2022-09-16T13:33:44.114Z,46.01
2022-09-16T13:36:30.702Z,46.87
2022-09-16T13:39:06.044Z,47.71
2022-09-16T13:41:42.295Z,45.77
2022-09-16T13:44:34.048Z,45.96
2022-09-16T13:47:30.652Z,45.76
2022-09-16T13:50:23.574Z,47.65
2022-09-16T13:52:53.045Z,48.11
2022-09-16T13:55:26.381Z,49.73
2022-09-16T13:58:28.457Z,49.80
2022-09-16T14:01:11.382Z,51.11
2022-09-16T14:03:50.507Z,50.98
2022-09-16T14:07:02.045Z,51.35
2022-09-16T14:09:54.161Z,51.82
2022-09-16T14:12:43.739Z,50.15
2022-09-16T14:15:12.058Z,48.89
2022-09-16T14:17:51.533Z,49.09
2022-09-16T14:20:24.807Z,49.49
2022-09-16T14:23:06.139Z,48.81
2022-09-16T14:25:38.774Z,46.15
2022-09-16T14:28:19.825Z,45.07
2022-09-16T14:31:06.714Z,44.02
2022-09-16T14:34:04.714Z,44.87
2022-09-16T14:36:38.879Z,45.35
2022-09-16T14:39:14.058Z,46.43
2022-09-16T14:41:48.477Z,47.60
2022-09-16T14:44:18.761Z,48.77
2022-09-16T14:47:08.814Z,49.07
2022-09-16T14:49:38.855Z,49.99
2022-09-16T14:52:24.415Z,50.43
2022-09-16T14:54:52.375Z,51.40
2022-09-16T14:57:26.003Z,52.18
2022-09-16T15:00:02.461Z,52.29
2022-09-16T15:02:44.879Z,52.79
2022-09-16T15:05:35.264Z,53.55
2022-09-16T15:08:18.527Z,54.17
2022-09-16T15:10:54.258Z,54.14
2022-09-16T15:13:35.610Z,54.43
2022-09-16T15:16:18.370Z,54.79
2022-09-16T15:19:08.473Z,55.81
2022-09-16T15:21:38.821Z,55.65
2022-09-16T15:24:25.011Z,56.56
2022-09-16T15:26:53.986Z,56.02
2022-09-16T15:29:24.206Z,56.52
2022-09-16T15:31:52.709Z,56.55
2022-09-16T15:34:23.265Z,56.75
2022-09-16T15:36:59.227Z,57.51
2022-09-16T15:39:31.137Z,58.05
2022-09-16T15:42:29.033Z,58.48
2022-09-16T15:45:03.088Z,59.23
2022-09-16T15:47:56.943Z,59.12
2022-09-16T15:50:29.130Z,59.15
2022-09-16T15:53:11.364Z,59.43
2022-09-16T15:55:57.019Z,60.11
2022-09-16T15:58:33.796Z,60.19
2022-09-16T16:01:13.434Z,60.44
2022-09-16T16:04:02.491Z,61.39
2022-09-16T16:07:03.669Z,61.76
2022-09-16T16:09:44.099Z,62.22
2022-09-16T16:12:16.311Z,63.01
2022-09-16T16:14:46.662Z,63.25
2022-09-16T16:17:19.108Z,63.79
2022-09-16T16:19:50.069Z,65.01
2022-09-16T16:22:18.111Z,65.72
2022-09-16T16:24:45.576Z,66.44
2022-09-16T16:27:12.762Z,66.46
2022-09-16T16:29:40.276Z,68.85
2022-09-16T16:32:14.086Z,68.89
2022-09-16T16:34:50.169Z,68.38
2022-09-16T16:37:44.579Z,68.63
2022-09-16T16:40:08.802Z,70.40
2022-09-16T16:42:36.287Z,70.67
2022-09-16T16:45:04.408Z,70.53
2022-09-16T16:47:32.021Z,71.32
2022-09-16T16:50:00.849Z,72.60
2022-09-16T16:52:28.178Z,73.50
2022-09-16T16:54:55.547Z,73.61
2022-09-16T16:57:22.762Z,74.94
2022-09-16T16:59:50.076Z,75.30
2022-09-16T17:02:17.549Z,76.01
2022-09-16T17:04:44.811Z,76.59
2022-09-16T17:07:25.714Z,78.01
2022-09-16T17:09:57.163Z,78.96
2022-09-16T17:12:25.299Z,79.72
2022-09-16T17:14:52.501Z,79.02
2022-09-16T17:17:19.919Z,80.02
2022-09-16T17:19:47.044Z,80.15
2022-09-16T17:22:14.273Z,80.59
2022-09-16T17:24:41.644Z,80.03
2022-09-16T17:27:08.826Z,80.05
2022-09-16T17:29:35.954Z,79.88
2022-09-16T17:32:03.596Z,79.51
2022-09-16T17:34:31.294Z,79.71
2022-09-16T17:36:58.952Z,79.58
2022-09-16T17:39:27.011Z,79.63
2022-09-16T17:41:56.711Z,79.20
2022-09-16T17:44:24.845Z,79.13
2022-09-16T17:46:53.448Z,78.69
2022-09-16T17:49:23.910Z,79.02
2022-09-16T17:51:53.688Z,78.71
2022-09-16T17:54:22.742Z,78.71
2022-09-16T17:56:50.662Z,78.93
2022-09-16T17:59:19.212Z,78.78
2022-09-16T18:01:46.874Z,78.91
2022-09-16T18:04:14.201Z,78.81
2022-09-16T18:06:46.935Z,78.93
2022-09-16T18:09:16.635Z,79.36
2022-09-16T18:11:44.979Z,79.45
2022-09-16T18:14:13.869Z,79.47
2022-09-16T18:16:42.699Z,80.21
2022-09-16T18:19:10.568Z,80.10
2022-09-16T18:21:38.439Z,79.77
2022-09-16T18:24:11.266Z,79.79
2022-09-16T18:26:42.084Z,79.55
2022-09-16T18:29:12.358Z,79.88
2022-09-16T18:31:44.946Z,79.75
2022-09-16T18:34:13.881Z,79.95
2022-09-16T18:36:41.497Z,79.65
2022-09-16T18:39:14.830Z,79.72
2022-09-16T18:41:45.198Z,79.83
2022-09-16T18:44:21.445Z,80.06
2022-09-16T18:46:49.067Z,80.01
2022-09-16T18:49:20.179Z,80.42
2022-09-16T18:51:51.892Z,80.73
2022-09-16T18:54:26.156Z,81.00
2022-09-16T18:56:59.166Z,80.65
2022-09-16T18:59:31.873Z,80.77
2022-09-16T19:02:03.585Z,80.83
2022-09-16T19:04:37.891Z,80.68
2022-09-16T19:07:08.321Z,80.60
2022-09-16T19:09:39.945Z,80.52
2022-09-16T19:12:11.208Z,81.00
2022-09-16T19:14:40.061Z,81.62
2022-09-16T19:17:07.553Z,81.53
2022-09-16T19:19:35.007Z,81.67
2022-09-16T19:22:06.011Z,81.93
2022-09-16T19:24:34.669Z,82.01
2022-09-16T19:27:02.118Z,82.40
2022-09-16T19:29:29.686Z,82.73
2022-09-16T19:31:57.502Z,82.89
2022-09-16T19:34:24.852Z,83.01
2022-09-16T19:36:52.360Z,83.40
2022-09-16T19:39:21.405Z,83.44
2022-09-16T19:41:48.805Z,83.65
2022-09-16T19:44:18.155Z,83.28
2022-09-16T19:46:49.477Z,83.76
2022-09-16T19:49:21.417Z,84.08
2022-09-16T19:51:52.991Z,84.46
2022-09-16T19:54:24.259Z,84.80
2022-09-16T19:56:51.775Z,84.75
2022-09-16T19:59:21.224Z,85.17
2022-09-16T20:01:49.437Z,85.78
2022-09-16T20:04:21.221Z,85.51
2022-09-16T20:06:50.040Z,85.68
2022-09-16T20:09:18.467Z,86.14
2022-09-16T20:11:49.344Z,86.57
2022-09-16T20:14:21.857Z,86.24
2022-09-16T20:16:51.097Z,86.03
2022-09-16T20:19:20.425Z,86.23
2022-09-16T20:21:48.544Z,86.29
2022-09-16T20:24:20.846Z,86.23
2022-09-16T20:26:56.030Z,86.42
2022-09-16T20:29:24.886Z,86.56
2022-09-16T20:31:54.090Z,87.19
2022-09-16T20:34:23.902Z,86.61
2022-09-16T20:36:52.380Z,86.65
2022-09-16T20:39:19.702Z,86.88
2022-09-16T20:41:49.990Z,86.68
2022-09-16T20:44:17.658Z,86.75
2022-09-16T20:46:46.304Z,87.47
2022-09-16T20:49:20.281Z,87.37
2022-09-16T20:51:47.793Z,87.95
2022-09-16T20:54:16.722Z,88.03
2022-09-16T20:56:48.115Z,87.85
2022-09-16T20:59:20.158Z,87.82
2022-09-16T21:01:49.415Z,87.85
2022-09-16T21:04:20.287Z,87.96
2022-09-16T21:06:48.867Z,88.01
2022-09-16T21:09:19.299Z,88.43
2022-09-16T21:11:47.932Z,88.39
2022-09-16T21:14:18.103Z,88.80
2022-09-16T21:16:47.248Z,88.75
2022-09-16T21:19:15.175Z,89.14
2022-09-16T21:21:46.470Z,89.10
2022-09-16T21:24:15.012Z,89.10
2022-09-16T21:26:44.234Z,90.25
2022-09-16T21:29:15.425Z,90.52
2022-09-16T21:31:44.090Z,90.57
2022-09-16T21:34:20.181Z,90.74
2022-09-16T21:36:50.760Z,90.61
2022-09-16T21:39:20.973Z,90.89
2022-09-16T21:41:49.100Z,90.88
2022-09-16T21:44:17.553Z,91.07
2022-09-16T21:46:46.689Z,91.18
2022-09-16T21:49:24.395Z,91.64
2022-09-16T21:51:55.345Z,91.59
2022-09-16T21:54:24.576Z,91.55
2022-09-16T21:56:52.966Z,91.81
2022-09-16T21:59:21.018Z,91.97
2022-09-16T22:01:50.684Z,92.14
2022-09-16T22:04:24.373Z,92.00
2022-09-16T22:06:55.627Z,91.73
2022-09-16T22:09:24.110Z,91.59
2022-09-16T22:11:52.271Z,92.16
2022-09-16T22:14:19.815Z,91.92
2022-09-16T22:16:46.992Z,91.81
2022-09-16T22:19:20.141Z,91.66
2022-09-16T22:21:51.377Z,91.70
2022-09-16T22:24:22.294Z,91.66
2022-09-16T22:26:51.934Z,91.38
2022-09-16T22:29:19.685Z,91.61
2022-09-16T22:31:47.506Z,91.45
2022-09-16T22:34:15.155Z,91.47
2022-09-16T22:36:42.564Z,91.25
2022-09-16T22:39:15.958Z,90.90
2022-09-16T22:41:44.242Z,91.24
2022-09-16T22:44:12.631Z,91.44
2022-09-16T22:46:48.372Z,91.56
2022-09-16T22:49:16.462Z,91.54
2022-09-16T22:51:44.376Z,91.59
2022-09-16T22:54:13.446Z,91.72
2022-09-16T22:56:42.686Z,91.67
2022-09-16T22:59:18.801Z,91.64
2022-09-16T23:01:47.174Z,91.71
2022-09-16T23:04:15.230Z,91.83
2022-09-16T23:06:42.743Z,91.63
2022-09-16T23:09:14.000Z,92.13
2022-09-16T23:11:41.207Z,92.12
2022-09-16T23:14:11.466Z,92.13
2022-09-16T23:16:38.806Z,92.11
2022-09-16T23:19:10.795Z,92.22
2022-09-16T23:21:38.887Z,92.21
2022-09-16T23:24:10.702Z,91.91
2022-09-16T23:26:39.045Z,92.24
2022-09-16T23:29:09.528Z,92.47
2022-09-16T23:31:41.698Z,92.63
2022-09-16T23:34:21.497Z,92.39
2022-09-16T23:36:50.033Z,92.47
2022-09-16T23:39:18.640Z,92.61
2022-09-16T23:41:46.683Z,92.68
2022-09-16T23:44:15.916Z,92.89
2022-09-16T23:46:43.863Z,92.78
2022-09-16T23:49:11.433Z,92.78
2022-09-16T23:51:39.922Z,92.66
2022-09-16T23:54:07.311Z,92.83
2022-09-16T23:56:34.738Z,92.64
2022-09-16T23:59:02.488Z,92.76
